Time;durP1;ratioP1;P1;durP2;ratioP2;P2;SDS_P1;SDS_P2;PMS_P1;PMS_P2;Temp;Humidity;BMP_temperature;BMP_pressure;BME280_temperature;BME280_humidity;BME280_pressure;Samples;Min_cycle;Max_cycle;Signal;HPM_P1;HPM_P2
2021/07/22 00:00:05;;;;;;;6.72;4.97;;;20.40;69.20;;;;;;4634830;30;20081;-78
2021/07/22 00:02:30;;;;;;;6.20;5.03;;;20.30;69.30;;;;;;4649870;30;20062;-77
2021/07/22 00:04:56;;;;;;;6.70;5.43;;;20.30;69.30;;;;;;4649988;30;20047;-77
2021/07/22 00:07:22;;;;;;;6.90;5.40;;;20.30;69.50;;;;;;4648814;30;20509;-77
2021/07/22 00:09:48;;;;;;;8.55;6.40;;;20.20;69.50;;;;;;4634664;30;20038;-77
2021/07/22 00:12:14;;;;;;;6.75;5.30;;;20.20;69.80;;;;;;4649884;30;20504;-77
2021/07/22 00:14:41;;;;;;;7.00;5.35;;;20.10;69.90;;;;;;4634635;30;20053;-76
2021/07/22 00:17:07;;;;;;;8.00;5.43;;;20.00;70.00;;;;;;4649655;30;20134;-77
2021/07/22 00:19:34;;;;;;;8.93;6.20;;;19.90;70.20;;;;;;4634757;30;20030;-76
2021/07/22 00:22:00;;;;;;;8.65;6.78;;;19.90;70.40;;;;;;4649742;30;20030;-77
2021/07/22 00:24:26;;;;;;;7.18;5.88;;;19.80;70.60;;;;;;4649780;30;20031;-77
2021/07/22 00:26:53;;;;;;;6.88;5.80;;;19.80;70.80;;;;;;4649684;30;20031;-76
2021/07/22 00:29:18;;;;;;;6.85;5.47;;;19.70;71.00;;;;;;4634356;30;20074;-77
2021/07/22 00:31:44;;;;;;;6.25;5.15;;;19.70;71.10;;;;;;4648205;30;20039;-77
2021/07/22 00:34:09;;;;;;;7.35;5.78;;;19.70;71.10;;;;;;4634357;30;20042;-77
2021/07/22 00:36:35;;;;;;;6.85;5.50;;;19.70;71.10;;;;;;4648272;30;20047;-77
2021/07/22 00:39:01;;;;;;;7.75;5.40;;;19.70;71.20;;;;;;4648256;30;20046;-78
2021/07/22 00:41:27;;;;;;;7.25;5.55;;;19.70;71.20;;;;;;4648149;30;20086;-77
2021/07/22 00:43:52;;;;;;;7.03;5.35;;;19.80;71.40;;;;;;4649455;30;20038;-77
2021/07/22 00:46:18;;;;;;;7.00;5.47;;;19.80;71.40;;;;;;4634064;30;20039;-77
2021/07/22 00:48:44;;;;;;;7.30;5.50;;;19.80;71.50;;;;;;4649365;30;20034;-76
2021/07/22 00:51:09;;;;;;;8.00;5.72;;;19.80;71.60;;;;;;4634395;30;20094;-77
2021/07/22 00:53:35;;;;;;;7.07;5.43;;;19.80;71.70;;;;;;4647912;30;20030;-77
2021/07/22 00:56:02;;;;;;;6.88;5.63;;;19.80;71.70;;;;;;4648101;30;20039;-77
2021/07/22 00:58:28;;;;;;;9.63;5.75;;;19.80;71.80;;;;;;4633845;30;20035;-77
2021/07/22 01:00:54;;;;;;;7.85;5.78;;;19.80;71.90;;;;;;4633774;30;20060;-77
2021/07/22 01:03:19;;;;;;;7.75;5.30;;;19.80;72.00;;;;;;4648960;30;20038;-76
2021/07/22 01:05:45;;;;;;;6.85;5.85;;;19.80;72.10;;;;;;4633862;30;20039;-78
2021/07/22 01:08:11;;;;;;;9.05;5.90;;;19.80;72.10;;;;;;4633464;30;20031;-78
2021/07/22 01:10:37;;;;;;;7.97;6.05;;;19.80;72.20;;;;;;4633797;30;20042;-77
2021/07/22 01:13:03;;;;;;;7.43;5.72;;;19.80;72.30;;;;;;4648953;30;20035;-78
2021/07/22 01:15:30;;;;;;;7.78;5.72;;;19.80;72.30;;;;;;4633465;30;20043;-78
2021/07/22 01:17:55;;;;;;;6.90;5.80;;;19.80;72.50;;;;;;4633701;30;20053;-78
2021/07/22 01:20:23;;;;;;;7.95;5.60;;;19.70;73.10;;;;;;4647855;30;20038;-78
2021/07/22 01:22:51;;;;;;;8.02;5.78;;;19.70;72.60;;;;;;4633674;30;20593;-77
2021/07/22 01:25:19;;;;;;;8.50;5.72;;;19.70;72.70;;;;;;4648825;30;20046;-77
2021/07/22 01:27:44;;;;;;;7.88;5.68;;;19.60;72.80;;;;;;4648684;30;20069;-79
2021/07/22 01:30:12;;;;;;;8.15;5.72;;;19.60;72.90;;;;;;4633397;30;20067;-77
2021/07/22 01:32:38;;;;;;;8.15;6.18;;;19.60;72.90;;;;;;4633387;30;20049;-76
2021/07/22 01:35:04;;;;;;;7.75;6.05;;;19.60;73.00;;;;;;4633150;30;20067;-77
2021/07/22 01:37:30;;;;;;;7.15;5.53;;;19.60;73.00;;;;;;4647522;30;20098;-77
2021/07/22 01:39:55;;;;;;;7.55;5.88;;;19.60;73.10;;;;;;4633443;30;20038;-76
2021/07/22 01:42:21;;;;;;;7.20;5.65;;;19.60;73.20;;;;;;4633213;30;20092;-77
2021/07/22 01:44:48;;;;;;;8.07;6.05;;;19.60;73.20;;;;;;4619726;30;20101;-76
2021/07/22 01:47:14;;;;;;;7.93;6.05;;;19.60;73.40;;;;;;4648631;30;20038;-77
2021/07/22 01:49:40;;;;;;;9.27;5.78;;;19.50;73.40;;;;;;4633222;30;20031;-76
2021/07/22 01:52:05;;;;;;;7.80;5.95;;;19.50;73.50;;;;;;4648752;30;20038;-76
2021/07/22 01:54:32;;;;;;;8.32;6.15;;;19.50;73.60;;;;;;4648511;30;20039;-77
2021/07/22 01:56:58;;;;;;;7.50;5.95;;;19.50;73.70;;;;;;4633704;30;20031;-77
2021/07/22 01:59:25;;;;;;;8.43;6.05;;;19.50;73.80;;;;;;4633540;30;20035;-76
2021/07/22 02:01:52;;;;;;;8.57;6.07;;;19.40;73.90;;;;;;4648369;30;20050;-77
2021/07/22 02:04:18;;;;;;;8.70;6.03;;;19.40;74.00;;;;;;4633138;30;20042;-77
2021/07/22 02:06:43;;;;;;;8.02;6.43;;;19.40;74.20;;;;;;4633058;30;20039;-78
2021/07/22 02:09:09;;;;;;;8.77;6.50;;;19.30;74.30;;;;;;4633166;30;20078;-77
2021/07/22 02:11:34;;;;;;;8.77;6.40;;;19.30;74.40;;;;;;4633069;30;20035;-77
2021/07/22 02:14:00;;;;;;;7.72;6.43;;;19.20;74.50;;;;;;4633144;30;20042;-77
2021/07/22 02:16:25;;;;;;;6.43;5.57;;;19.20;74.60;;;;;;4648146;30;20448;-77
2021/07/22 02:18:51;;;;;;;8.60;6.50;;;19.20;74.70;;;;;;4633056;30;20050;-77
2021/07/22 02:21:17;;;;;;;8.38;6.25;;;19.10;74.70;;;;;;4635827;30;20035;-78
2021/07/22 02:23:43;;;;;;;8.43;6.47;;;19.10;74.90;;;;;;4636348;30;20046;-78
2021/07/22 02:26:09;;;;;;;7.05;5.63;;;19.00;74.90;;;;;;4636331;30;20146;-77
2021/07/22 02:28:35;;;;;;;10.05;6.68;;;19.00;75.00;;;;;;4651580;30;20042;-78
2021/07/22 02:31:02;;;;;;;8.80;6.90;;;19.00;75.10;;;;;;4651583;30;20070;-78
2021/07/22 02:33:28;;;;;;;8.88;6.55;;;19.00;75.10;;;;;;4651512;30;20501;-78
2021/07/22 02:35:55;;;;;;;9.25;6.70;;;18.90;75.20;;;;;;4651820;30;20073;-78
2021/07/22 02:38:21;;;;;;;7.95;6.43;;;18.90;75.30;;;;;;4636232;30;20101;-76
2021/07/22 02:40:47;;;;;;;9.05;6.35;;;18.80;75.40;;;;;;4651352;30;20046;-77
2021/07/22 02:43:14;;;;;;;7.88;6.28;;;18.80;75.50;;;;;;4635902;30;20038;-77
2021/07/22 02:45:39;;;;;;;9.43;7.00;;;18.70;76.20;;;;;;4651351;30;20043;-77
2021/07/22 02:48:05;;;;;;;10.27;6.60;;;18.70;75.80;;;;;;4651326;30;20051;-77
2021/07/22 02:50:32;;;;;;;9.35;6.75;;;18.60;75.90;;;;;;4636003;30;20102;-77
2021/07/22 02:53:03;;;;;;;9.10;6.97;;;18.60;76.10;;;;;;4636199;30;20049;-77
2021/07/22 02:55:29;;;;;;;7.60;6.22;;;18.50;76.90;;;;;;4651120;30;20039;-76
2021/07/22 02:57:55;;;;;;;9.75;6.78;;;18.50;76.30;;;;;;4651466;30;20409;-77
2021/07/22 03:00:21;;;;;;;10.35;7.35;;;18.50;76.40;;;;;;4651049;30;20117;-76
2021/07/22 03:02:46;;;;;;;9.60;7.03;;;18.40;76.60;;;;;;4633160;30;20129;-76
2021/07/22 03:05:12;;;;;;;10.63;6.70;;;18.40;76.80;;;;;;4651284;30;20046;-76
2021/07/22 03:07:38;;;;;;;9.65;6.60;;;18.40;76.80;;;;;;4635832;30;20027;-76
2021/07/22 03:10:05;;;;;;;10.85;6.97;;;18.40;76.90;;;;;;4635581;30;20050;-77
2021/07/22 03:12:30;;;;;;;9.60;6.68;;;18.40;76.90;;;;;;4635525;30;20031;-77
2021/07/22 03:14:56;;;;;;;10.55;7.07;;;18.40;77.00;;;;;;4635515;30;20038;-76
2021/07/22 03:17:21;;;;;;;11.25;7.85;;;18.40;77.10;;;;;;4650581;30;20055;-78
2021/07/22 03:19:47;;;;;;;10.60;7.28;;;18.40;77.20;;;;;;4635505;30;20054;-77
2021/07/22 03:22:14;;;;;;;12.38;8.18;;;18.30;77.20;;;;;;4635654;30;20117;-77
2021/07/22 03:24:40;;;;;;;10.27;7.57;;;18.30;77.40;;;;;;4651070;30;20046;-78
2021/07/22 03:27:06;;;;;;;12.00;7.70;;;18.30;77.50;;;;;;4635415;30;20038;-78
2021/07/22 03:29:32;;;;;;;10.82;7.53;;;18.20;77.60;;;;;;4635352;30;20126;-78
2021/07/22 03:32:00;;;;;;;11.95;8.23;;;18.20;77.80;;;;;;4650462;30;20035;-78
2021/07/22 03:34:26;;;;;;;11.50;8.27;;;18.20;78.00;;;;;;4635718;30;20039;-78
2021/07/22 03:36:51;;;;;;;13.60;9.50;;;18.10;78.20;;;;;;4635247;30;20042;-78
2021/07/22 03:39:17;;;;;;;12.00;8.65;;;18.10;78.30;;;;;;4649406;30;20077;-77
2021/07/22 03:41:48;;;;;;;11.27;8.63;;;18.10;78.40;;;;;;4650521;30;20042;-78
2021/07/22 03:44:15;;;;;;;12.25;8.27;;;18.00;78.50;;;;;;4635202;30;20039;-78
2021/07/22 03:46:41;;;;;;;12.25;8.60;;;18.00;78.60;;;;;;4649255;30;20031;-78
2021/07/22 03:49:07;;;;;;;11.05;7.75;;;18.00;78.70;;;;;;4650418;30;20031;-78
2021/07/22 03:51:33;;;;;;;11.30;7.90;;;18.00;78.70;;;;;;4650470;30;20031;-78
2021/07/22 03:53:58;;;;;;;11.40;8.48;;;18.00;78.90;;;;;;4635160;30;20159;-78
2021/07/22 03:56:25;;;;;;;12.43;8.60;;;17.90;78.90;;;;;;4650237;30;20047;-78
2021/07/22 03:58:53;;;;;;;11.10;8.43;;;17.90;79.00;;;;;;4649017;30;20038;-78
2021/07/22 04:01:18;;;;;;;11.73;8.70;;;17.90;79.10;;;;;;4635098;30;20668;-78
2021/07/22 04:07:06;;;;;;;11.32;7.55;;;17.90;79.40;;;;;;4650367;30;20405;-78
2021/07/22 04:09:31;;;;;;;9.75;7.07;;;17.80;79.20;;;;;;4649987;30;20039;-78
2021/07/22 04:11:57;;;;;;;11.10;8.20;;;17.90;79.30;;;;;;4634628;30;20461;-77
2021/07/22 04:17:44;;;;;;;8.98;6.57;;;17.90;79.30;;;;;;4648625;30;20081;-77
2021/07/22 04:20:10;;;;;;;10.05;7.53;;;17.90;79.00;;;;;;4649856;30;20031;-78
2021/07/22 04:22:36;;;;;;;9.80;7.65;;;18.00;79.00;;;;;;4649679;30;20043;-77
2021/07/22 04:25:01;;;;;;;11.57;8.65;;;18.00;79.10;;;;;;4649847;30;20261;-77
2021/07/22 04:27:27;;;;;;;9.70;8.02;;;18.00;79.10;;;;;;4634444;30;20030;-77
2021/07/22 04:29:54;;;;;;;11.95;8.13;;;18.00;79.10;;;;;;4634422;30;20114;-78
2021/07/22 04:32:20;;;;;;;9.45;7.50;;;18.00;79.10;;;;;;4649744;30;20205;-77
2021/07/22 04:34:45;;;;;;;11.00;8.52;;;18.00;79.10;;;;;;4634293;30;20121;-78
2021/07/22 04:37:11;;;;;;;9.15;7.30;;;18.10;79.10;;;;;;4634342;30;20035;-78
2021/07/22 04:39:36;;;;;;;11.82;7.80;;;18.10;79.00;;;;;;4634177;30;20057;-78
2021/07/22 04:42:02;;;;;;;10.50;7.93;;;18.10;79.00;;;;;;4633839;30;20038;-78
2021/07/22 04:44:28;;;;;;;9.55;7.45;;;18.20;79.00;;;;;;4633982;30;20030;-78
2021/07/22 04:46:55;;;;;;;9.60;7.10;;;18.20;78.90;;;;;;4649432;30;20042;-78
2021/07/22 04:49:21;;;;;;;10.32;6.88;;;18.20;78.90;;;;;;4634124;30;20035;-77
2021/07/22 04:51:46;;;;;;;11.50;7.65;;;18.20;78.80;;;;;;4634135;30;20402;-77
2021/07/22 04:54:12;;;;;;;10.15;7.95;;;18.30;78.80;;;;;;4649605;30;20039;-77
2021/07/22 04:56:37;;;;;;;10.52;7.82;;;18.20;78.80;;;;;;4634057;30;20045;-77
2021/07/22 04:59:03;;;;;;;10.52;8.05;;;18.20;78.80;;;;;;4634122;30;20081;-77
2021/07/22 05:01:28;;;;;;;10.95;8.00;;;18.20;78.90;;;;;;4649072;30;20066;-77
2021/07/22 05:03:54;;;;;;;10.40;7.72;;;18.20;78.90;;;;;;4633770;30;20043;-77
2021/07/22 05:06:21;;;;;;;12.10;8.93;;;18.20;78.90;;;;;;4633840;30;20035;-78
2021/07/22 05:08:46;;;;;;;12.35;8.15;;;18.20;78.90;;;;;;4633857;30;20042;-78
2021/07/22 05:11:12;;;;;;;12.57;8.10;;;18.10;78.90;;;;;;4633785;30;20178;-78
2021/07/22 05:13:40;;;;;;;11.23;8.63;;;18.10;79.10;;;;;;4633666;30;20035;-77
2021/07/22 05:16:07;;;;;;;12.20;9.05;;;18.10;79.20;;;;;;4648176;30;20105;-76
2021/07/22 05:18:34;;;;;;;11.68;8.50;;;18.10;79.30;;;;;;4647708;30;20062;-77
2021/07/22 05:21:04;;;;;;;12.38;8.57;;;18.10;79.30;;;;;;4633757;30;20129;-77
2021/07/22 05:23:30;;;;;;;12.15;9.05;;;18.00;79.30;;;;;;4633593;30;20048;-79
2021/07/22 05:25:55;;;;;;;10.82;8.73;;;18.00;79.40;;;;;;4631276;30;20038;-76
2021/07/22 05:28:21;;;;;;;10.70;8.40;;;18.00;79.40;;;;;;4647588;30;20038;-78
2021/07/22 05:30:46;;;;;;;12.38;8.57;;;18.00;79.40;;;;;;4633850;30;20093;-78
2021/07/22 05:33:12;;;;;;;10.38;8.02;;;18.00;79.40;;;;;;4648701;30;20486;-78
2021/07/22 05:35:37;;;;;;;11.10;8.07;;;18.10;79.50;;;;;;4648692;30;20409;-76
2021/07/22 05:38:03;;;;;;;14.05;9.15;;;18.10;79.50;;;;;;4633717;30;20039;-79
2021/07/22 05:40:29;;;;;;;11.68;8.32;;;18.10;79.50;;;;;;4633459;30;20046;-78
2021/07/22 05:42:54;;;;;;;13.48;8.48;;;18.10;79.60;;;;;;4633123;30;20509;-78
2021/07/22 05:45:20;;;;;;;10.40;8.68;;;18.10;79.50;;;;;;4631023;30;20126;-78
2021/07/22 05:47:46;;;;;;;14.73;9.18;;;18.10;79.60;;;;;;4633165;30;20035;-78
2021/07/22 05:50:12;;;;;;;12.57;8.95;;;18.10;79.80;;;;;;4633473;30;20034;-79
2021/07/22 05:52:37;;;;;;;12.45;8.60;;;18.10;79.80;;;;;;4633314;30;20035;-78
2021/07/22 05:55:04;;;;;;;12.10;8.75;;;18.20;79.80;;;;;;4648441;30;20038;-77
2021/07/22 06:00:52;;;;;;;10.70;7.22;;;18.20;79.90;;;;;;4648629;30;20100;-78
2021/07/22 06:03:17;;;;;;;10.52;8.52;;;18.30;79.70;;;;;;4633196;30;20488;-77
2021/07/22 06:05:43;;;;;;;11.25;8.18;;;18.30;79.70;;;;;;4648438;30;20457;-77
2021/07/22 06:08:08;;;;;;;11.27;8.45;;;18.40;79.60;;;;;;4633607;30;20126;-79
2021/07/22 06:10:34;;;;;;;9.70;7.97;;;18.40;79.50;;;;;;4633317;30;20042;-78
2021/07/22 06:13:00;;;;;;;10.13;8.18;;;18.40;79.50;;;;;;4648355;30;20097;-77
2021/07/22 06:15:25;;;;;;;10.43;8.38;;;18.50;79.50;;;;;;4633785;30;20525;-78
2021/07/22 06:17:51;;;;;;;10.95;8.55;;;18.50;79.50;;;;;;4632940;30;20059;-77
2021/07/22 06:20:17;;;;;;;9.32;7.32;;;18.50;79.60;;;;;;4633124;30;20462;-78
2021/07/22 06:22:46;;;;;;;10.20;8.27;;;18.50;80.10;;;;;;4633268;30;20098;-78
2021/07/22 06:28:33;;;;;;;9.20;7.38;;;18.70;79.50;;;;;;4648641;30;20174;-78
2021/07/22 06:30:59;;;;;;;11.93;8.63;;;18.70;79.30;;;;;;4633392;30;20464;-78
2021/07/22 06:33:25;;;;;;;11.38;8.75;;;18.70;79.20;;;;;;4647078;30;20035;-77
2021/07/22 06:35:51;;;;;;;10.13;7.97;;;18.70;79.20;;;;;;4648677;30;20070;-78
2021/07/22 06:38:17;;;;;;;10.70;8.60;;;18.80;79.10;;;;;;4648553;30;20067;-78
2021/07/22 06:40:42;;;;;;;10.07;8.13;;;18.80;79.00;;;;;;4630696;30;20051;-78
2021/07/22 06:46:30;;;;;;;10.65;8.38;;;19.00;78.90;;;;;;4648412;30;20074;-79
2021/07/22 06:48:58;;;;;;;10.23;8.35;;;19.00;78.70;;;;;;4632894;30;20396;-78
2021/07/22 06:51:24;;;;;;;12.68;7.63;;;19.10;78.70;;;;;;4632861;30;20042;-78
2021/07/22 06:53:52;;;;;;;10.70;8.45;;;19.10;78.50;;;;;;4632808;30;20035;-78
2021/07/22 06:56:17;;;;;;;8.38;6.82;;;19.20;78.50;;;;;;4632788;30;20035;-78
2021/07/22 06:58:43;;;;;;;9.23;7.15;;;19.20;78.30;;;;;;4632834;30;20147;-79
2021/07/22 07:01:08;;;;;;;11.38;8.23;;;19.30;78.20;;;;;;4648005;30;20524;-78
2021/07/22 07:03:34;;;;;;;9.95;7.65;;;19.40;78.10;;;;;;4647970;30;20512;-78
2021/07/22 07:06:02;;;;;;;10.73;8.23;;;19.50;77.90;;;;;;4650542;30;20047;-78
2021/07/22 07:08:27;;;;;;;11.57;7.63;;;19.60;77.70;;;;;;4637826;30;20027;-78
2021/07/22 07:10:53;;;;;;;8.65;7.32;;;19.70;77.40;;;;;;4652129;30;20039;-77
2021/07/22 07:13:18;;;;;;;9.52;6.90;;;19.80;77.10;;;;;;4636692;30;20043;-78
2021/07/22 07:15:44;;;;;;;7.95;6.20;;;19.80;76.80;;;;;;4636363;30;20409;-79
2021/07/22 07:18:10;;;;;;;11.02;7.20;;;19.90;76.60;;;;;;4651797;30;20141;-78
2021/07/22 07:20:36;;;;;;;8.82;7.00;;;19.90;76.40;;;;;;4636804;30;20034;-78
2021/07/22 07:23:54;;;;;;;11.13;8.77;;;19.90;76.20;;;;;;4636655;30;20035;-79
2021/07/22 07:26:20;;;;;;;11.35;7.57;;;20.00;76.00;;;;;;4636506;30;20049;-78
2021/07/22 07:28:45;;;;;;;11.68;6.95;;;20.10;75.80;;;;;;4651617;30;20408;-77
2021/07/22 07:31:11;;;;;;;9.93;7.38;;;20.10;75.50;;;;;;4636221;30;20035;-79
2021/07/22 07:33:37;;;;;;;7.72;6.85;;;20.20;75.40;;;;;;4651673;30;20039;-78
2021/07/22 07:36:02;;;;;;;12.13;8.38;;;20.30;75.30;;;;;;4648787;30;20035;-79
2021/07/22 07:41:50;;;;;;;8.32;6.70;;;20.30;74.90;;;;;;4650781;30;20050;-79
2021/07/22 07:44:16;;;;;;;10.93;8.10;;;20.40;74.90;;;;;;4650533;30;20486;-78
2021/07/22 07:46:41;;;;;;;9.45;7.35;;;20.40;74.60;;;;;;4650719;30;20456;-78
2021/07/22 07:49:08;;;;;;;7.95;6.85;;;20.40;74.50;;;;;;4635079;30;20524;-78
2021/07/22 07:51:34;;;;;;;8.00;7.05;;;20.50;74.40;;;;;;4650357;30;20517;-78
2021/07/22 07:57:21;;;;;;;7.57;6.50;;;20.70;74.00;;;;;;4650514;30;20126;-78
2021/07/22 07:59:47;;;;;;;8.30;7.10;;;20.80;73.80;;;;;;4635335;30;20564;-80
2021/07/22 08:02:16;;;;;;;10.63;8.02;;;20.90;73.50;;;;;;4635255;30;20027;-81
2021/07/22 08:04:42;;;;;;;10.20;8.15;;;21.10;73.10;;;;;;4632700;30;20046;-79
2021/07/22 08:07:08;;;;;;;10.07;7.82;;;21.10;72.60;;;;;;4649450;30;20031;-81
2021/07/22 08:09:33;;;;;;;9.20;7.32;;;21.20;72.80;;;;;;4635057;30;20089;-79
2021/07/22 08:11:59;;;;;;;8.07;6.95;;;21.20;72.00;;;;;;4634894;30;20031;-78
2021/07/22 08:14:25;;;;;;;7.93;7.13;;;21.30;72.00;;;;;;4634860;30;20034;-78
2021/07/22 08:16:50;;;;;;;8.13;7.13;;;21.30;71.80;;;;;;4649561;30;20416;-79
2021/07/22 08:19:16;;;;;;;7.40;6.63;;;21.40;71.70;;;;;;4648718;30;20043;-77
2021/07/22 08:21:44;;;;;;;9.65;8.30;;;21.40;71.70;;;;;;4647478;30;20039;-80
2021/07/22 08:24:11;;;;;;;8.13;7.18;;;21.40;71.60;;;;;;4649069;30;20035;-80
2021/07/22 08:26:37;;;;;;;11.05;7.47;;;21.40;71.40;;;;;;4648865;30;20398;-78
2021/07/22 08:29:03;;;;;;;10.20;8.80;;;21.50;71.30;;;;;;4650471;30;20031;-78
2021/07/22 08:31:28;;;;;;;12.80;9.02;;;21.40;71.00;;;;;;4650158;30;20057;-77
2021/07/22 08:33:56;;;;;;;9.07;8.15;;;21.40;71.00;;;;;;4650049;30;20042;-79
2021/07/22 08:36:21;;;;;;;7.97;7.07;;;21.40;70.90;;;;;;4634578;30;20111;-80
2021/07/22 08:38:47;;;;;;;8.95;7.90;;;21.40;70.60;;;;;;4650323;30;20070;-79
2021/07/22 08:41:14;;;;;;;7.60;6.65;;;21.50;70.40;;;;;;4649727;30;20046;-79
2021/07/22 08:43:40;;;;;;;8.70;7.00;;;21.60;70.30;;;;;;4634450;30;20174;-78
2021/07/22 08:46:06;;;;;;;10.40;7.30;;;21.80;69.90;;;;;;4634306;30;20486;-79
2021/07/22 08:48:34;;;;;;;8.30;7.50;;;21.90;69.30;;;;;;4634741;30;20031;-80
2021/07/22 08:51:04;;;;;;;8.25;6.50;;;21.90;69.10;;;;;;4634340;30;20031;-78
2021/07/22 08:53:29;;;;;;;8.05;6.22;;;22.00;68.80;;;;;;4649777;30;20035;-78
2021/07/22 08:55:58;;;;;;;8.98;6.78;;;22.00;68.20;;;;;;4634338;30;20382;-77
2021/07/22 08:58:27;;;;;;;6.00;5.20;;;22.10;68.30;;;;;;4649404;30;20093;-78
2021/07/22 09:00:55;;;;;;;6.90;5.60;;;22.10;67.40;;;;;;4648493;30;20035;-78
2021/07/22 09:03:21;;;;;;;5.55;5.03;;;22.10;67.30;;;;;;4634104;30;20031;-79
2021/07/22 09:05:48;;;;;;;6.30;5.70;;;22.20;67.30;;;;;;4648247;30;20035;-79
2021/07/22 09:08:14;;;;;;;5.70;4.80;;;22.30;67.20;;;;;;4634886;30;20433;-78
2021/07/22 09:10:40;;;;;;;5.72;4.50;;;22.20;67.00;;;;;;4648420;30;20034;-79
2021/07/22 09:13:22;;;;;;;6.72;5.65;;;22.30;66.90;;;;;;4634523;30;20135;-79
2021/07/22 09:15:53;;;;;;;5.90;5.03;;;22.30;66.30;;;;;;4633976;30;20035;-79
2021/07/22 09:18:31;;;;;;;7.18;5.80;;;22.30;66.30;;;;;;4633958;30;20190;-79
2021/07/22 09:20:56;;;;;;;5.30;4.80;;;22.30;66.10;;;;;;4632104;30;20066;-79
2021/07/22 09:23:25;;;;;;;6.72;4.80;;;22.40;66.10;;;;;;4634020;30;20126;-80
2021/07/22 09:25:53;;;;;;;6.32;4.53;;;22.40;65.90;;;;;;4633816;30;20035;-78
2021/07/22 09:28:26;;;;;;;6.95;4.72;;;22.50;65.60;;;;;;4633575;30;20042;-78
2021/07/22 09:34:24;;;;;;;5.60;4.43;;;22.60;64.40;;;;;;4649436;30;20456;-79
2021/07/22 09:36:51;;;;;;;6.43;5.10;;;22.60;64.20;;;;;;4631569;30;20039;-79
2021/07/22 09:39:30;;;;;;;4.93;4.43;;;22.70;63.70;;;;;;4633468;30;20027;-77
2021/07/22 09:42:00;;;;;;;6.50;4.55;;;22.70;63.70;;;;;;4634398;30;20155;-78
2021/07/22 09:44:39;;;;;;;6.63;4.20;;;22.70;63.80;;;;;;4649028;30;20094;-78
2021/07/22 09:47:10;;;;;;;6.55;3.95;;;22.80;63.70;;;;;;4647879;30;20136;-78
2021/07/22 09:49:41;;;;;;;4.88;4.22;;;22.80;63.60;;;;;;4633980;30;20027;-80
2021/07/22 09:52:18;;;;;;;4.65;4.10;;;22.90;63.50;;;;;;4633691;30;20573;-78
2021/07/22 09:54:44;;;;;;;4.43;3.80;;;22.90;63.20;;;;;;4633593;30;20473;-78
2021/07/22 09:57:18;;;;;;;4.78;4.20;;;23.00;63.20;;;;;;4648872;30;20110;-78
2021/07/22 10:00:37;;;;;;;5.85;4.35;;;23.00;62.80;;;;;;4633819;30;20039;-79
2021/07/22 10:03:04;;;;;;;5.80;4.38;;;23.00;62.60;;;;;;4633386;30;20516;-78
2021/07/22 10:05:42;;;;;;;5.50;4.38;;;23.00;62.60;;;;;;4633347;30;20507;-79
2021/07/22 10:08:08;;;;;;;5.78;4.85;;;23.00;62.50;;;;;;4633638;30;20052;-80
2021/07/22 10:13:56;;;;;;;6.70;4.72;;;23.10;62.10;;;;;;4648987;30;20069;-79
2021/07/22 10:16:22;;;;;;;6.75;5.00;;;23.10;62.10;;;;;;4633584;30;20512;-79
2021/07/22 10:18:53;;;;;;;5.20;4.30;;;23.20;61.90;;;;;;4633116;30;20059;-78
2021/07/22 10:21:19;;;;;;;4.53;4.10;;;23.30;61.80;;;;;;4633484;30;20428;-78
2021/07/22 10:23:46;;;;;;;4.28;3.88;;;23.40;61.60;;;;;;4633345;30;20042;-79
2021/07/22 10:26:12;;;;;;;4.47;3.72;;;23.50;61.40;;;;;;4647352;30;20035;-79
2021/07/22 10:28:38;;;;;;;6.13;4.28;;;23.60;61.30;;;;;;4633456;30;20114;-77
2021/07/22 10:31:08;;;;;;;6.22;4.40;;;23.70;60.70;;;;;;4633781;30;20031;-79
2021/07/22 10:33:37;;;;;;;5.78;3.92;;;23.70;60.30;;;;;;4647376;30;20039;-78
2021/07/22 10:36:03;;;;;;;4.63;4.05;;;23.70;60.20;;;;;;4633231;30;20027;-78
2021/07/22 10:38:43;;;;;;;6.00;4.25;;;23.70;60.00;;;;;;4645947;30;20047;-79
2021/07/22 10:41:30;;;;;;;4.53;3.90;;;23.70;59.40;;;;;;4634098;30;20034;-79
2021/07/22 10:43:56;;;;;;;5.00;4.15;;;23.80;59.70;;;;;;4651098;30;20041;-79
2021/07/22 10:46:21;;;;;;;5.82;4.75;;;23.80;59.70;;;;;;4636184;30;20035;-78
2021/07/22 10:48:48;;;;;;;5.43;4.70;;;23.70;59.70;;;;;;4635947;30;20390;-77
2021/07/22 10:51:20;;;;;;;6.90;4.20;;;23.80;59.70;;;;;;4635969;30;20397;-78
2021/07/22 10:53:48;;;;;;;8.27;4.90;;;23.70;59.60;;;;;;4636295;30;20049;-78
2021/07/22 10:56:22;;;;;;;5.13;4.45;;;23.70;59.90;;;;;;4635731;30;20037;-78
2021/07/22 10:58:49;;;;;;;5.72;4.47;;;23.80;59.60;;;;;;4651097;30;20417;-77
2021/07/22 11:01:44;;;;;;;5.75;4.30;;;23.80;59.70;;;;;;4651045;30;20066;-79
2021/07/22 11:04:22;;;;;;;6.15;4.80;;;23.80;59.70;;;;;;4635549;30;20039;-77
2021/07/22 11:07:17;;;;;;;4.95;3.83;;;23.80;59.70;;;;;;4635891;30;20031;-78
2021/07/22 11:09:52;;;;;;;5.63;4.13;;;24.00;59.70;;;;;;4633893;30;20054;-80
2021/07/22 11:12:37;;;;;;;4.40;4.00;;;24.10;59.60;;;;;;4651119;30;20086;-78
2021/07/22 11:15:07;;;;;;;5.95;4.72;;;24.40;59.20;;;;;;4635786;30;20027;-79
2021/07/22 11:17:35;;;;;;;4.95;4.32;;;24.60;58.80;;;;;;4635703;30;20043;-78
2021/07/22 11:20:32;;;;;;;5.60;4.97;;;24.70;58.40;;;;;;4649516;30;20031;-80
2021/07/22 11:26:35;;;;;;;6.38;5.30;;;24.70;58.20;;;;;;4651322;30;20053;-79
2021/07/22 11:32:26;;;;;;;5.28;4.15;;;24.50;58.30;;;;;;4651085;30;20041;-78
2021/07/22 11:35:02;;;;;;;4.55;4.00;;;24.40;58.40;;;;;;4635490;30;20093;-78
2021/07/22 11:37:28;;;;;;;5.50;5.00;;;24.40;58.40;;;;;;4633150;30;20039;-78
2021/07/22 11:39:56;;;;;;;6.55;5.25;;;24.30;58.10;;;;;;4650087;30;20118;-78
2021/07/22 11:42:22;;;;;;;6.53;5.30;;;24.20;58.10;;;;;;4635528;30;20027;-79
2021/07/22 11:45:04;;;;;;;5.18;4.68;;;24.10;58.10;;;;;;4650707;30;20035;-79
2021/07/22 11:47:31;;;;;;;5.13;4.63;;;24.00;58.30;;;;;;4650321;30;20037;-78
2021/07/22 11:49:58;;;;;;;5.32;4.82;;;23.90;58.40;;;;;;4635087;30;20086;-79
2021/07/22 11:52:27;;;;;;;5.30;4.45;;;23.80;58.40;;;;;;4634924;30;20035;-78
2021/07/22 11:55:08;;;;;;;5.35;4.28;;;23.70;58.60;;;;;;4650176;30;20039;-78
2021/07/22 11:57:38;;;;;;;6.45;4.55;;;23.80;58.70;;;;;;4634921;30;20019;-80
2021/07/22 12:00:21;;;;;;;6.07;4.47;;;23.90;58.20;;;;;;4634966;30;20485;-79
2021/07/22 12:02:53;;;;;;;4.07;3.38;;;24.10;57.70;;;;;;4650229;30;20041;-78
2021/07/22 12:05:26;;;;;;;5.00;4.22;;;24.20;57.50;;;;;;4634910;30;20035;-79
2021/07/22 12:07:53;;;;;;;5.05;4.50;;;24.40;57.20;;;;;;4634947;30;20030;-80
2021/07/22 12:10:31;;;;;;;5.65;4.13;;;24.50;56.90;;;;;;4634845;30;20035;-78
2021/07/22 12:12:58;;;;;;;6.13;4.80;;;24.70;56.60;;;;;;4632683;30;20126;-78
2021/07/22 12:15:24;;;;;;;4.43;4.03;;;24.70;56.40;;;;;;4648997;30;20049;-80
2021/07/22 12:17:50;;;;;;;5.20;4.13;;;24.70;56.40;;;;;;4634767;30;20082;-80
2021/07/22 12:20:16;;;;;;;4.70;3.90;;;24.60;56.40;;;;;;4649832;30;20039;-79
2021/07/22 12:22:42;;;;;;;5.43;3.90;;;24.60;56.50;;;;;;4649816;30;20090;-78
2021/07/22 12:25:12;;;;;;;4.15;3.75;;;24.60;56.50;;;;;;4648559;30;20122;-78
2021/07/22 12:27:49;;;;;;;3.88;3.50;;;24.70;56.40;;;;;;4634400;30;20034;-79
2021/07/22 12:30:38;;;;;;;4.30;3.90;;;24.90;56.10;;;;;;4634510;30;20123;-80
2021/07/22 12:33:05;;;;;;;4.00;3.60;;;25.10;55.60;;;;;;4633211;30;20039;-79
2021/07/22 12:35:58;;;;;;;5.57;4.00;;;25.10;55.50;;;;;;4649579;30;20394;-79
2021/07/22 12:38:26;;;;;;;4.22;3.53;;;25.20;55.40;;;;;;4645208;30;20053;-78
2021/07/22 12:40:54;;;;;;;3.90;3.35;;;25.20;55.50;;;;;;4648311;30;20408;-78
2021/07/22 12:43:23;;;;;;;4.10;3.70;;;25.10;55.50;;;;;;4649375;30;20031;-79
2021/07/22 12:45:52;;;;;;;4.68;3.85;;;24.90;55.50;;;;;;4634020;30;20026;-78
2021/07/22 12:48:18;;;;;;;5.10;4.28;;;24.80;55.60;;;;;;4648294;30;20035;-78
2021/07/22 12:50:47;;;;;;;5.03;3.55;;;24.80;55.30;;;;;;4633895;30;20126;-79
2021/07/22 12:53:17;;;;;;;5.22;3.58;;;24.90;55.40;;;;;;4633909;30;20041;-79
2021/07/22 12:55:43;;;;;;;4.80;3.58;;;25.00;55.10;;;;;;4634038;30;20129;-79
2021/07/22 12:58:28;;;;;;;3.65;3.08;;;25.20;55.10;;;;;;4633971;30;20130;-78
2021/07/22 13:01:00;;;;;;;3.40;3.10;;;25.60;54.90;;;;;;4646538;30;20050;-79
2021/07/22 13:03:26;;;;;;;4.10;3.53;;;25.80;54.50;;;;;;4633005;30;20134;-78
2021/07/22 13:05:52;;;;;;;3.22;2.92;;;25.80;54.10;;;;;;4633921;30;20034;-79
2021/07/22 13:08:18;;;;;;;3.33;3.03;;;25.80;53.90;;;;;;4633862;30;20027;-80
2021/07/22 13:10:43;;;;;;;3.75;3.40;;;25.80;53.90;;;;;;4649072;30;20027;-78
2021/07/22 13:13:09;;;;;;;4.57;3.42;;;25.70;53.70;;;;;;4631560;30;20125;-78
2021/07/22 13:15:35;;;;;;;3.95;3.25;;;25.50;53.60;;;;;;4633712;30;20062;-78
2021/07/22 13:18:00;;;;;;;3.25;2.95;;;25.50;53.50;;;;;;4633514;30;20058;-79
2021/07/22 13:20:26;;;;;;;3.33;2.95;;;25.60;53.60;;;;;;4633770;30;20504;-79
2021/07/22 13:22:51;;;;;;;3.38;3.08;;;25.70;53.30;;;;;;4649322;30;20105;-79